createdAt,value
2019-04-26T00:00:44.215Z,4.87
2019-04-26T00:03:44.513Z,8.37
2019-04-26T00:06:33.874Z,12.53
2019-04-26T00:09:26.826Z,20.83
2019-04-26T00:12:34.409Z,19.07
2019-04-26T00:15:45.882Z,20.80
2019-04-26T00:18:35.378Z,20.33
2019-04-26T00:21:24.629Z,21.87
2019-04-26T00:24:15.266Z,23.27
2019-04-26T00:27:04.165Z,18.27
2019-04-26T00:29:54.083Z,11.30
2019-04-26T00:32:24.275Z,6.37
2019-04-26T00:35:14.004Z,5.70
2019-04-26T00:38:02.681Z,5.10
2019-04-26T00:40:53.171Z,4.30
2019-04-26T00:43:42.739Z,3.83
2019-04-26T00:46:33.267Z,7.33
2019-04-26T00:49:23.274Z,4.03
2019-04-26T00:52:15.579Z,6.20
2019-04-26T00:55:05.556Z,3.80
2019-04-26T00:57:54.434Z,3.47
2019-04-26T01:00:43.278Z,5.00
2019-04-26T01:03:32.106Z,7.87
2019-04-26T01:06:25.094Z,3.80
2019-04-26T01:09:15.894Z,3.70
2019-04-26T01:12:04.840Z,3.67
2019-04-26T01:14:54.584Z,4.27
2019-04-26T01:17:43.715Z,6.33
2019-04-26T01:20:34.897Z,4.27
2019-04-26T01:23:27.301Z,3.67
2019-04-26T01:26:23.190Z,3.67
2019-04-26T01:29:14.655Z,3.87
2019-04-26T01:32:11.382Z,3.97
2019-04-26T01:34:59.948Z,3.70
2019-04-26T01:37:50.895Z,3.87
2019-04-26T01:40:41.126Z,4.17
2019-04-26T01:43:53.192Z,4.47
2019-04-26T01:46:45.597Z,7.77
2019-04-26T01:49:35.316Z,3.90
2019-04-26T01:52:25.643Z,4.40
2019-04-26T01:55:16.109Z,7.97
2019-04-26T01:58:07.990Z,4.30
2019-04-26T02:01:05.934Z,4.17
2019-04-26T02:03:54.984Z,4.50
2019-04-26T02:06:44.176Z,6.90
2019-04-26T02:09:32.956Z,4.97
2019-04-26T02:12:23.471Z,4.40
2019-04-26T02:15:13.427Z,4.93
2019-04-26T02:18:03.297Z,7.57
2019-04-26T02:21:05.972Z,5.67
2019-04-26T02:24:13.453Z,4.67
2019-04-26T02:27:05.466Z,4.77
2019-04-26T02:29:55.023Z,5.10
2019-04-26T02:32:44.437Z,4.97
2019-04-26T02:35:34.109Z,6.63
2019-04-26T02:38:23.490Z,5.37
2019-04-26T02:41:14.105Z,5.80
2019-04-26T02:44:06.295Z,5.93
2019-04-26T02:47:37.273Z,6.60
2019-04-26T02:50:42.186Z,6.50
2019-04-26T02:53:44.307Z,6.13
2019-04-26T02:56:40.133Z,8.53
2019-04-26T02:59:42.289Z,7.80
2019-04-26T03:02:33.282Z,7.90
2019-04-26T03:05:23.627Z,7.83
2019-04-26T03:08:19.586Z,7.70
2019-04-26T03:11:19.707Z,11.30
2019-04-26T03:14:27.221Z,11.80
2019-04-26T03:17:32.405Z,9.97
2019-04-26T03:20:25.535Z,10.10
2019-04-26T03:23:57.106Z,12.53
2019-04-26T03:26:43.447Z,10.83
2019-04-26T03:29:46.366Z,9.33
2019-04-26T03:33:01.841Z,11.47
2019-04-26T03:36:29.381Z,12.20
2019-04-26T03:39:44.393Z,14.17
2019-04-26T03:42:44.138Z,20.47
2019-04-26T03:45:49.364Z,18.87
2019-04-26T03:48:53.962Z,13.57
2019-04-26T03:52:08.529Z,12.00
2019-04-26T03:55:01.029Z,13.33
2019-04-26T03:57:54.785Z,11.93
2019-04-26T04:00:34.975Z,14.03
2019-04-26T04:03:47.953Z,10.60
2019-04-26T04:06:56.543Z,12.40
2019-04-26T04:09:30.747Z,11.63
2019-04-26T04:12:27.283Z,8.87
2019-04-26T04:15:21.774Z,10.73
2019-04-26T04:18:16.786Z,8.97
2019-04-26T04:21:34.901Z,10.03
2019-04-26T04:24:44.633Z,25.90
2019-04-26T04:27:44.059Z,45.40
2019-04-26T04:30:56.526Z,56.13
2019-04-26T04:34:09.988Z,72.43
2019-04-26T04:37:02.338Z,67.70
2019-04-26T04:40:32.986Z,74.70
2019-04-26T04:43:38.367Z,48.87
2019-04-26T04:47:35.152Z,39.87
2019-04-26T04:50:40.950Z,26.00
2019-04-26T04:54:06.525Z,17.20
2019-04-26T04:57:25.319Z,11.40
2019-04-26T05:00:54.101Z,10.27
2019-04-26T05:04:20.199Z,16.03
2019-04-26T05:07:45.968Z,17.17
2019-04-26T05:10:46.382Z,16.03
2019-04-26T05:13:46.376Z,13.20
2019-04-26T05:17:02.577Z,10.20
2019-04-26T05:20:22.997Z,9.37
2019-04-26T05:24:12.116Z,12.10
2019-04-26T05:27:48.361Z,11.17
2019-04-26T05:31:19.454Z,10.17
2019-04-26T05:34:22.185Z,10.33
2019-04-26T05:37:24.249Z,8.40
2019-04-26T05:40:49.975Z,8.90
2019-04-26T05:44:15.437Z,10.50
2019-04-26T05:47:35.128Z,12.47
2019-04-26T05:51:21.704Z,12.03
2019-04-26T05:54:58.626Z,7.23
2019-04-26T05:58:16.353Z,10.17
2019-04-26T06:01:27.817Z,8.00
2019-04-26T06:04:55.221Z,10.93
2019-04-26T06:08:03.798Z,7.50
2019-04-26T06:11:00.354Z,7.73
2019-04-26T06:14:14.138Z,9.90
2019-04-26T06:17:33.550Z,7.53
2019-04-26T06:20:49.717Z,7.80
2019-04-26T06:24:05.521Z,14.63
2019-04-26T06:27:37.407Z,9.80
2019-04-26T06:30:57.765Z,7.90
2019-04-26T06:34:15.221Z,8.87
2019-04-26T06:37:32.153Z,8.63
2019-04-26T06:40:54.943Z,7.57
2019-04-26T06:43:50.151Z,10.47
2019-04-26T06:47:10.605Z,7.30
2019-04-26T06:50:29.097Z,6.60
2019-04-26T06:53:49.905Z,9.37
2019-04-26T06:57:27.279Z,6.60
2019-04-26T07:00:23.427Z,8.73
2019-04-26T07:03:43.784Z,7.37
2019-04-26T07:06:38.503Z,16.60
2019-04-26T07:09:30.375Z,16.93
2019-04-26T07:12:39.175Z,11.13
2019-04-26T07:16:19.660Z,10.00
2019-04-26T07:20:07.909Z,6.97
2019-04-26T07:23:55.921Z,7.67
2019-04-26T07:27:17.648Z,9.30
2019-04-26T07:30:41.672Z,7.03
2019-04-26T07:33:45.868Z,7.40
2019-04-26T07:37:21.712Z,6.63
2019-04-26T07:40:52.655Z,9.23
2019-04-26T07:44:39.371Z,6.87
2019-04-26T07:48:20.440Z,6.50
2019-04-26T07:52:11.376Z,7.13
2019-04-26T07:55:51.354Z,8.13
2019-04-26T07:59:30.684Z,9.70
2019-04-26T08:02:41.974Z,7.53
2019-04-26T08:05:47.819Z,6.40
2019-04-26T08:08:46.041Z,8.10
2019-04-26T08:11:44.730Z,7.33
2019-04-26T08:15:26.245Z,7.87
2019-04-26T08:18:23.075Z,8.00
2019-04-26T08:21:31.734Z,7.90
2019-04-26T08:24:23.258Z,8.17
2019-04-26T08:27:23.192Z,7.90
2019-04-26T08:30:17.445Z,9.53
2019-04-26T08:33:11.318Z,8.37
2019-04-26T08:36:01.210Z,8.43
2019-04-26T08:38:52.600Z,8.70
2019-04-26T08:41:43.765Z,12.53
2019-04-26T08:44:57.293Z,7.47
2019-04-26T08:47:54.258Z,9.27
2019-04-26T08:50:47.299Z,8.57
2019-04-26T08:53:39.625Z,16.43
2019-04-26T08:56:33.622Z,8.43
2019-04-26T08:59:27.242Z,9.67
2019-04-26T09:02:36.991Z,9.47
2019-04-26T09:06:05.731Z,8.10
2019-04-26T09:08:58.081Z,7.13
2019-04-26T09:11:59.090Z,8.80
2019-04-26T09:14:45.022Z,8.17
2019-04-26T09:17:34.663Z,9.57
2019-04-26T09:20:29.718Z,8.30
2019-04-26T09:23:40.370Z,7.57
2019-04-26T09:26:35.440Z,8.50
2019-04-26T09:29:26.304Z,10.83
2019-04-26T09:32:18.346Z,7.97
2019-04-26T09:35:11.270Z,8.67
2019-04-26T09:37:58.476Z,8.63
2019-04-26T09:40:48.296Z,8.27
2019-04-26T09:43:45.370Z,11.67
2019-04-26T09:46:48.384Z,8.20
2019-04-26T09:50:15.348Z,8.80
2019-04-26T09:53:02.008Z,9.90
2019-04-26T09:55:51.026Z,8.40
2019-04-26T09:58:40.270Z,7.10
2019-04-26T10:01:30.414Z,7.80
2019-04-26T10:04:20.018Z,7.53
2019-04-26T10:07:09.390Z,7.37
2019-04-26T10:10:00.887Z,7.97
2019-04-26T10:12:57.024Z,8.90
2019-04-26T10:15:58.235Z,7.50
2019-04-26T10:18:50.210Z,9.30
2019-04-26T10:21:39.173Z,11.00
2019-04-26T10:24:28.451Z,9.03
2019-04-26T10:27:18.018Z,11.53
2019-04-26T10:30:09.716Z,7.87
2019-04-26T10:33:02.155Z,6.43
2019-04-26T10:35:52.492Z,10.10
2019-04-26T10:38:39.789Z,8.63
2019-04-26T10:41:28.974Z,8.27
2019-04-26T10:44:18.557Z,9.10
2019-04-26T10:47:08.144Z,7.37
2019-04-26T10:49:59.187Z,7.67
2019-04-26T10:53:07.662Z,9.00
2019-04-26T10:56:14.456Z,7.50
2019-04-26T10:58:58.763Z,8.43
2019-04-26T11:01:47.301Z,9.03
2019-04-26T11:04:37.358Z,8.40
2019-04-26T11:07:26.985Z,9.13
2019-04-26T11:10:16.518Z,12.00
2019-04-26T11:13:05.528Z,8.27
2019-04-26T11:15:54.851Z,16.07
2019-04-26T11:18:44.095Z,11.03
2019-04-26T11:21:33.793Z,7.87
2019-04-26T11:24:22.992Z,7.47
2019-04-26T11:27:12.487Z,8.20
2019-04-26T11:30:11.131Z,18.90
2019-04-26T11:32:51.932Z,12.80
2019-04-26T11:35:40.663Z,6.87
2019-04-26T11:38:31.291Z,7.53
2019-04-26T11:41:21.061Z,8.00
2019-04-26T11:44:10.847Z,11.20
2019-04-26T11:47:03.243Z,11.10
2019-04-26T11:49:51.217Z,19.23
2019-04-26T11:52:40.366Z,9.57
2019-04-26T11:55:31.413Z,8.30
2019-04-26T11:58:22.666Z,8.57
2019-04-26T12:01:12.974Z,9.33
2019-04-26T12:04:33.660Z,10.90
2019-04-26T12:07:26.675Z,8.23
2019-04-26T12:10:16.295Z,10.30
2019-04-26T12:13:06.295Z,6.17
2019-04-26T12:15:55.644Z,13.53
2019-04-26T12:18:45.714Z,9.03
2019-04-26T12:21:35.292Z,10.73
2019-04-26T12:24:25.339Z,14.60
2019-04-26T12:27:15.428Z,7.60
2019-04-26T12:30:04.893Z,12.40
2019-04-26T12:32:53.695Z,9.03
2019-04-26T12:35:43.481Z,5.27
2019-04-26T12:38:32.661Z,7.00
2019-04-26T12:41:39.212Z,10.57
2019-04-26T12:44:12.805Z,5.33
2019-04-26T12:47:15.565Z,7.70
2019-04-26T12:50:04.473Z,6.43
2019-04-26T12:52:55.600Z,13.70
2019-04-26T12:55:43.207Z,7.97
2019-04-26T12:58:32.232Z,7.70
2019-04-26T13:01:22.220Z,8.37
2019-04-26T13:04:11.458Z,6.80
2019-04-26T13:07:07.182Z,6.40
2019-04-26T13:10:14.452Z,6.27
2019-04-26T13:13:13.503Z,6.20
2019-04-26T13:16:16.906Z,7.63
2019-04-26T13:19:06.281Z,8.13
2019-04-26T13:21:55.376Z,6.10
2019-04-26T13:24:44.912Z,5.30
2019-04-26T13:27:34.361Z,4.90
2019-04-26T13:30:32.706Z,5.67
2019-04-26T13:33:14.490Z,6.07
2019-04-26T13:36:04.169Z,5.60
2019-04-26T13:38:53.657Z,13.17
2019-04-26T13:41:28.030Z,8.27
2019-04-26T13:44:01.206Z,5.80
2019-04-26T13:46:58.291Z,9.83
2019-04-26T13:50:01.611Z,9.23
2019-04-26T13:52:50.755Z,5.80
2019-04-26T13:55:40.002Z,7.00
2019-04-26T13:58:29.601Z,5.43
2019-04-26T14:01:19.743Z,6.50
2019-04-26T14:04:09.023Z,5.67
2019-04-26T14:06:58.661Z,6.40
2019-04-26T14:09:47.684Z,6.87
2019-04-26T14:12:37.471Z,4.77
2019-04-26T14:15:26.919Z,8.00
2019-04-26T14:18:15.815Z,4.70
2019-04-26T14:21:04.973Z,7.47
2019-04-26T14:24:13.041Z,4.60
2019-04-26T14:27:05.250Z,8.53
2019-04-26T14:29:54.279Z,4.50
2019-04-26T14:32:43.884Z,7.20
2019-04-26T14:35:33.467Z,7.87
2019-04-26T14:38:27.998Z,5.93
2019-04-26T14:41:13.786Z,7.57
2019-04-26T14:44:14.790Z,7.43
2019-04-26T14:46:56.789Z,6.17
2019-04-26T14:49:44.023Z,7.00
2019-04-26T14:52:34.514Z,6.90
2019-04-26T14:55:23.828Z,9.53
2019-04-26T14:58:12.867Z,8.67
2019-04-26T15:01:04.399Z,8.97
2019-04-26T15:04:11.201Z,5.60
2019-04-26T15:07:02.040Z,6.27
2019-04-26T15:09:52.929Z,7.87
2019-04-26T15:12:46.899Z,7.70
2019-04-26T15:15:34.657Z,6.30
2019-04-26T15:18:23.961Z,10.03
2019-04-26T15:21:12.967Z,5.47
2019-04-26T15:24:02.883Z,8.00
2019-04-26T15:26:52.860Z,4.87
2019-04-26T15:29:42.410Z,6.73
2019-04-26T15:32:35.135Z,4.50
2019-04-26T15:35:23.221Z,4.23
2019-04-26T15:38:12.337Z,6.30
2019-04-26T15:41:22.255Z,6.10
2019-04-26T15:44:36.720Z,5.93
2019-04-26T15:47:34.218Z,5.57
2019-04-26T15:50:33.036Z,6.67
2019-04-26T15:53:23.764Z,5.20
2019-04-26T15:56:16.301Z,5.67
2019-04-26T15:59:03.912Z,7.23
2019-04-26T16:01:56.134Z,5.10
2019-04-26T16:04:47.394Z,7.10
2019-04-26T16:07:34.617Z,6.10
2019-04-26T16:10:25.674Z,5.10
2019-04-26T16:13:21.063Z,4.23
2019-04-26T16:16:04.447Z,6.53
2019-04-26T16:18:56.790Z,4.40
2019-04-26T16:21:48.234Z,5.50
2019-04-26T16:24:35.107Z,7.40
2019-04-26T16:27:30.732Z,5.70
2019-04-26T16:30:37.323Z,7.10
2019-04-26T16:33:28.417Z,7.23
2019-04-26T16:36:18.298Z,13.60
2019-04-26T16:39:10.187Z,6.77
2019-04-26T16:42:04.448Z,5.43
2019-04-26T16:44:49.999Z,6.57
2019-04-26T16:47:44.993Z,5.83
2019-04-26T16:50:32.201Z,8.90
2019-04-26T16:53:37.708Z,9.40
2019-04-26T16:56:12.587Z,8.03
2019-04-26T16:59:02.855Z,5.43
2019-04-26T17:01:53.608Z,7.93
2019-04-26T17:04:43.685Z,4.33
2019-04-26T17:07:39.145Z,5.00
2019-04-26T17:10:24.793Z,3.83
2019-04-26T17:13:14.375Z,5.43
2019-04-26T17:16:03.962Z,8.67
2019-04-26T17:18:55.618Z,8.43
2019-04-26T17:21:52.319Z,3.73
2019-04-26T17:24:58.908Z,8.23
2019-04-26T17:27:48.646Z,3.83
2019-04-26T17:30:40.981Z,2.80
2019-04-26T17:33:29.120Z,9.13
2019-04-26T17:36:18.597Z,5.03
2019-04-26T17:39:10.923Z,3.60
2019-04-26T17:42:01.254Z,5.00
2019-04-26T17:44:51.648Z,3.70
2019-04-26T17:47:42.424Z,3.37
2019-04-26T17:50:35.403Z,6.10
2019-04-26T17:53:30.723Z,3.87
2019-04-26T17:56:13.677Z,4.80
2019-04-26T17:59:09.003Z,6.03
2019-04-26T18:02:00.874Z,6.03
2019-04-26T18:04:44.135Z,4.10
2019-04-26T18:07:40.760Z,3.50
2019-04-26T18:10:23.594Z,4.30
2019-04-26T18:13:16.440Z,4.03
2019-04-26T18:16:03.777Z,7.50
2019-04-26T18:19:10.519Z,3.63
2019-04-26T18:22:04.483Z,5.20
2019-04-26T18:24:54.278Z,5.73
2019-04-26T18:27:44.208Z,7.60
2019-04-26T18:30:18.342Z,5.57
2019-04-26T18:33:08.089Z,5.00
2019-04-26T18:35:57.687Z,8.77
2019-04-26T18:38:48.677Z,3.10
2019-04-26T18:41:37.911Z,3.93
2019-04-26T18:44:36.300Z,7.03
2019-04-26T18:47:28.009Z,4.17
2019-04-26T18:50:14.597Z,4.67
2019-04-26T18:53:41.557Z,5.50
2019-04-26T18:56:36.987Z,4.60
2019-04-26T18:59:23.395Z,4.60
2019-04-26T19:02:18.638Z,7.83
2019-04-26T19:05:05.380Z,3.87
2019-04-26T19:07:55.370Z,5.70
2019-04-26T19:10:44.764Z,5.30
2019-04-26T19:14:11.330Z,5.60
2019-04-26T19:17:37.166Z,10.43
2019-04-26T19:20:32.606Z,8.83
2019-04-26T19:23:22.778Z,6.93
2019-04-26T19:26:13.664Z,9.87
2019-04-26T19:29:09.902Z,9.97
2019-04-26T19:31:56.551Z,7.67
2019-04-26T19:34:34.399Z,15.80
2019-04-26T19:37:23.657Z,9.57
2019-04-26T19:40:13.757Z,6.47
2019-04-26T19:43:07.839Z,8.67
2019-04-26T19:46:06.528Z,6.70
2019-04-26T19:49:14.512Z,11.03
2019-04-26T19:52:22.138Z,13.47
2019-04-26T19:55:33.661Z,11.20
2019-04-26T19:58:25.081Z,9.73
2019-04-26T20:00:55.450Z,10.40
2019-04-26T20:03:25.860Z,10.23
2019-04-26T20:05:56.344Z,8.03
2019-04-26T20:08:29.347Z,10.03
2019-04-26T20:10:59.094Z,5.90
2019-04-26T20:13:31.576Z,7.17
2019-04-26T20:16:05.019Z,7.17
2019-04-26T20:18:38.757Z,4.83
2019-04-26T20:21:06.581Z,5.03
2019-04-26T20:23:38.295Z,9.53
2019-04-26T20:26:09.451Z,5.07
2019-04-26T20:28:40.055Z,12.53
2019-04-26T20:31:32.084Z,6.53
2019-04-26T20:34:05.527Z,9.00
2019-04-26T20:36:40.578Z,9.07
2019-04-26T20:39:07.785Z,8.43
2019-04-26T20:41:38.027Z,9.47
2019-04-26T20:44:10.126Z,11.73
2019-04-26T20:46:40.502Z,10.37
2019-04-26T20:49:11.433Z,10.07
2019-04-26T20:51:46.025Z,9.13
2019-04-26T20:54:16.245Z,8.43
2019-04-26T20:56:46.222Z,11.63
2019-04-26T20:59:36.238Z,12.93
2019-04-26T21:02:26.252Z,11.40
2019-04-26T21:05:15.510Z,8.47
2019-04-26T21:08:05.083Z,12.10
2019-04-26T21:10:56.048Z,9.33
2019-04-26T21:13:44.936Z,13.37
2019-04-26T21:16:34.571Z,15.60
2019-04-26T21:19:24.169Z,8.33
2019-04-26T21:22:13.743Z,12.20
2019-04-26T21:25:11.842Z,9.70
2019-04-26T21:28:21.712Z,8.53
2019-04-26T21:31:22.639Z,8.50
2019-04-26T21:34:24.853Z,9.70
2019-04-26T21:37:34.197Z,6.63
2019-04-26T21:40:29.044Z,7.30
2019-04-26T21:43:18.216Z,9.27
2019-04-26T21:46:08.543Z,8.53
2019-04-26T21:48:57.585Z,4.00
2019-04-26T21:51:51.315Z,5.67
2019-04-26T21:54:37.687Z,14.60
2019-04-26T21:57:28.277Z,16.87
2019-04-26T22:00:36.397Z,17.03
2019-04-26T22:03:25.725Z,7.23
2019-04-26T22:06:15.626Z,3.40
2019-04-26T22:09:20.328Z,5.33
2019-04-26T22:12:13.066Z,2.50
2019-04-26T22:15:20.146Z,2.33
2019-04-26T22:18:21.294Z,3.87
2019-04-26T22:21:28.902Z,3.50
2019-04-26T22:24:23.399Z,3.43
2019-04-26T22:27:17.267Z,2.73
2019-04-26T22:30:05.070Z,5.20
2019-04-26T22:32:58.058Z,2.60
2019-04-26T22:35:44.134Z,2.57
2019-04-26T22:38:33.991Z,3.07
2019-04-26T22:41:24.396Z,3.03
2019-04-26T22:44:24.841Z,2.73
2019-04-26T22:47:19.846Z,4.60
2019-04-26T22:50:09.131Z,2.50
2019-04-26T22:52:58.345Z,3.27
2019-04-26T22:55:47.321Z,3.70
2019-04-26T22:58:20.619Z,2.70
2019-04-26T23:01:10.574Z,2.67
2019-04-26T23:03:59.944Z,2.53
2019-04-26T23:06:49.184Z,2.60
2019-04-26T23:09:38.165Z,2.70
2019-04-26T23:12:46.370Z,3.67
2019-04-26T23:16:00.706Z,5.43
2019-04-26T23:19:04.369Z,3.83
2019-04-26T23:21:56.097Z,4.83
2019-04-26T23:24:49.190Z,8.60
2019-04-26T23:27:35.698Z,6.43
2019-04-26T23:30:27.784Z,6.83
2019-04-26T23:33:15.239Z,7.63
2019-04-26T23:36:04.819Z,9.87
2019-04-26T23:38:53.838Z,9.97
2019-04-26T23:41:44.524Z,7.40
2019-04-26T23:44:36.899Z,9.00
2019-04-26T23:47:25.615Z,8.13
2019-04-26T23:50:14.910Z,8.70
2019-04-26T23:53:03.602Z,10.67
2019-04-26T23:55:52.877Z,13.83
2019-04-26T23:58:23.196Z,7.63
